createdAt,value
2022-10-17T00:02:11.015Z,1.66
2022-10-17T00:04:40.794Z,1.62
2022-10-17T00:07:07.350Z,1.61
2022-10-17T00:09:33.969Z,1.56
2022-10-17T00:12:00.652Z,1.56
2022-10-17T00:14:27.234Z,1.50
2022-10-17T00:16:53.797Z,1.55
2022-10-17T00:19:20.442Z,1.49
2022-10-17T00:21:50.809Z,1.47
2022-10-17T00:24:17.401Z,1.48
2022-10-17T00:26:44.676Z,1.43
2022-10-17T00:29:11.300Z,1.41
2022-10-17T00:31:37.910Z,1.36
2022-10-17T00:34:04.667Z,1.23
2022-10-17T00:36:31.429Z,1.32
2022-10-17T00:38:59.539Z,1.35
2022-10-17T00:41:32.338Z,1.31
2022-10-17T00:44:13.033Z,1.33
2022-10-17T00:46:40.722Z,1.29
2022-10-17T00:49:10.025Z,1.32
2022-10-17T00:51:57.695Z,1.31
2022-10-17T00:54:28.908Z,1.46
2022-10-17T00:56:55.791Z,1.55
2022-10-17T00:59:23.554Z,1.63
2022-10-17T01:02:04.780Z,1.72
2022-10-17T01:04:32.495Z,1.66
2022-10-17T01:06:59.117Z,1.70
2022-10-17T01:09:27.331Z,1.68
2022-10-17T01:12:05.414Z,1.74
2022-10-17T01:14:37.700Z,1.79
2022-10-17T01:17:41.704Z,1.86
2022-10-17T01:20:20.300Z,1.86
2022-10-17T01:23:00.016Z,1.94
2022-10-17T01:25:47.271Z,1.85
2022-10-17T01:28:50.358Z,1.94
2022-10-17T01:31:26.260Z,1.89
2022-10-17T01:34:17.798Z,1.92
2022-10-17T01:37:02.529Z,1.85
2022-10-17T01:39:47.922Z,1.88
2022-10-17T01:42:33.487Z,1.89
2022-10-17T01:45:09.116Z,1.87
2022-10-17T01:47:35.988Z,1.83
2022-10-17T01:50:21.561Z,1.93
2022-10-17T01:53:02.812Z,1.85
2022-10-17T01:55:34.953Z,1.87
2022-10-17T01:58:16.716Z,1.73
2022-10-17T02:00:45.585Z,2.01
2022-10-17T02:03:16.695Z,1.95
2022-10-17T02:05:44.844Z,2.08
2022-10-17T02:08:13.830Z,2.13
2022-10-17T02:10:43.015Z,2.02
2022-10-17T02:13:23.410Z,1.89
2022-10-17T02:16:01.723Z,1.76
2022-10-17T02:18:46.503Z,1.66
2022-10-17T02:21:24.326Z,1.62
2022-10-17T02:24:20.562Z,1.51
2022-10-17T02:27:10.344Z,1.39
2022-10-17T02:29:45.749Z,1.30
2022-10-17T02:34:50.899Z,1.22
2022-10-17T02:37:23.039Z,1.13
2022-10-17T02:39:50.920Z,1.07
2022-10-17T02:42:18.888Z,1.02
2022-10-17T02:44:47.088Z,1.04
2022-10-17T02:47:45.663Z,1.00
2022-10-17T02:50:12.373Z,0.89
2022-10-17T02:52:59.205Z,0.90
2022-10-17T02:55:36.170Z,0.79
2022-10-17T02:58:19.065Z,0.85
2022-10-17T03:00:46.159Z,0.82
2022-10-17T03:03:25.901Z,0.85
2022-10-17T03:05:53.253Z,0.78
2022-10-17T03:08:20.724Z,0.83
2022-10-17T03:10:48.911Z,0.81
2022-10-17T03:13:16.648Z,0.85
2022-10-17T03:15:43.494Z,0.81
2022-10-17T03:18:10.142Z,0.82
2022-10-17T03:20:36.720Z,0.77
2022-10-17T03:23:03.503Z,0.85
2022-10-17T03:25:30.236Z,0.83
2022-10-17T03:27:59.447Z,0.81
2022-10-17T03:30:26.053Z,0.75
2022-10-17T03:32:52.988Z,0.73
2022-10-17T03:35:19.680Z,0.80
2022-10-17T03:37:46.260Z,0.77
2022-10-17T03:40:16.652Z,0.78
2022-10-17T03:42:43.266Z,0.76
2022-10-17T03:45:10.112Z,0.76
2022-10-17T03:47:36.783Z,0.69
2022-10-17T03:50:04.505Z,0.65
2022-10-17T03:52:31.157Z,0.77
2022-10-17T03:55:02.012Z,0.77
2022-10-17T03:57:28.814Z,0.73
2022-10-17T03:59:55.646Z,0.79
2022-10-17T04:02:22.293Z,0.74
2022-10-17T04:04:48.893Z,0.80
2022-10-17T04:07:15.523Z,0.82
2022-10-17T04:09:43.663Z,0.83
2022-10-17T17:05:39.057Z,5.89
2022-10-17T17:08:08.021Z,5.98
2022-10-17T17:10:38.292Z,6.03
2022-10-17T17:13:04.915Z,6.10
2022-10-17T17:15:31.490Z,6.18
2022-10-17T17:18:00.474Z,6.20
2022-10-17T17:20:30.828Z,6.32
2022-10-17T17:22:57.426Z,6.35
2022-10-17T17:25:24.133Z,6.29
2022-10-17T17:27:50.780Z,6.32
2022-10-17T17:30:17.504Z,6.31
2022-10-17T17:32:45.171Z,6.39
2022-10-17T17:35:11.814Z,6.39
2022-10-17T17:37:38.368Z,6.40
2022-10-17T17:40:06.231Z,6.12
2022-10-17T17:42:32.876Z,6.36
2022-10-17T17:44:59.498Z,6.44
2022-10-17T17:47:29.020Z,6.48
2022-10-17T17:49:56.108Z,6.50
2022-10-17T17:52:22.704Z,6.42
2022-10-17T17:54:49.331Z,6.53
2022-10-17T17:57:17.448Z,6.53
2022-10-17T17:59:44.047Z,6.51
2022-10-17T18:02:11.403Z,6.53
2022-10-17T18:04:38.866Z,6.59
2022-10-17T18:07:06.694Z,6.55
2022-10-17T18:09:33.352Z,6.63
2022-10-17T18:12:00.730Z,6.58
2022-10-17T18:14:27.464Z,6.63
2022-10-17T18:16:54.039Z,6.68
2022-10-17T18:19:23.659Z,6.71
2022-10-17T18:21:50.249Z,6.70
2022-10-17T18:24:16.847Z,6.68
2022-10-17T18:26:43.449Z,6.74
2022-10-17T18:29:12.671Z,6.59
2022-10-17T18:31:39.325Z,6.71
2022-10-17T18:34:06.040Z,6.75
2022-10-17T18:36:34.053Z,6.82
2022-10-17T18:39:01.963Z,6.77
2022-10-17T18:41:28.873Z,6.81
2022-10-17T18:43:56.458Z,6.83
2022-10-17T18:46:25.350Z,6.80
2022-10-17T18:48:53.233Z,6.84
2022-10-17T18:51:22.258Z,6.84
2022-10-17T18:53:51.321Z,6.81
2022-10-17T18:56:19.248Z,6.76
2022-10-17T18:58:46.208Z,6.78
2022-10-17T19:01:18.597Z,6.89
2022-10-17T19:03:47.238Z,6.84
2022-10-17T19:06:15.944Z,6.92
2022-10-17T19:08:43.398Z,6.96
2022-10-17T19:11:22.912Z,6.89
2022-10-17T19:13:50.263Z,6.87
2022-10-17T19:16:24.975Z,6.96
2022-10-17T19:19:11.612Z,6.94
2022-10-17T19:21:39.145Z,6.98
2022-10-17T19:24:08.185Z,6.95
2022-10-17T19:26:36.607Z,6.94
2022-10-17T19:29:05.329Z,6.86
2022-10-17T19:31:33.727Z,6.95
2022-10-17T19:34:00.634Z,7.04
2022-10-17T19:36:32.449Z,7.03
2022-10-17T19:39:05.364Z,7.03
2022-10-17T19:41:33.047Z,7.02
2022-10-17T19:44:00.737Z,7.01
2022-10-17T19:46:29.216Z,7.08
2022-10-17T19:48:56.330Z,7.02
2022-10-17T19:51:24.636Z,7.07
2022-10-17T19:53:52.457Z,7.04
2022-10-17T19:56:24.468Z,6.98
2022-10-17T19:58:51.693Z,7.04
2022-10-17T20:01:28.543Z,7.04
2022-10-17T20:03:55.847Z,7.02
2022-10-17T20:06:22.576Z,6.97
2022-10-17T20:08:50.097Z,6.89
2022-10-17T20:11:19.074Z,6.97
2022-10-17T20:13:46.053Z,6.98
2022-10-17T20:16:18.359Z,6.99
2022-10-17T20:18:45.104Z,6.93
2022-10-17T20:21:17.168Z,6.91
2022-10-17T20:23:45.648Z,6.87
2022-10-17T20:29:03.857Z,7.08
2022-10-17T20:31:30.594Z,7.10
2022-10-17T20:33:58.900Z,7.03
2022-10-17T20:36:26.375Z,7.05
2022-10-17T20:38:57.339Z,7.06
2022-10-17T20:41:25.417Z,7.03
2022-10-17T20:43:53.350Z,6.97
2022-10-17T20:46:36.459Z,6.90
2022-10-17T20:49:05.811Z,6.94
2022-10-17T20:51:32.776Z,6.98
2022-10-17T20:53:59.489Z,6.99
2022-10-17T20:56:30.413Z,7.02
2022-10-17T20:58:59.855Z,7.10
2022-10-17T21:01:27.562Z,7.14
2022-10-17T21:03:54.410Z,7.11
2022-10-17T21:06:23.221Z,7.21
2022-10-17T21:08:52.312Z,7.23
2022-10-17T21:11:22.447Z,7.26
2022-10-17T21:13:55.664Z,7.34
2022-10-17T21:16:22.552Z,7.32
2022-10-17T21:18:52.728Z,7.35
2022-10-17T21:21:21.845Z,7.34
2022-10-17T21:23:50.401Z,7.26
2022-10-17T21:26:18.907Z,7.36
2022-10-17T21:28:47.004Z,7.35
2022-10-17T21:31:22.374Z,7.37
2022-10-17T21:33:52.391Z,7.36
2022-10-17T21:36:19.863Z,7.42
2022-10-17T21:38:48.729Z,7.37
2022-10-17T21:41:19.572Z,7.45
2022-10-17T21:43:47.029Z,7.45
2022-10-17T21:46:17.418Z,7.40
2022-10-17T21:48:45.373Z,7.46
2022-10-17T21:51:15.107Z,7.43
2022-10-17T21:53:42.822Z,7.42
2022-10-17T21:56:11.715Z,7.46
2022-10-17T21:58:38.331Z,7.36
2022-10-17T22:01:10.592Z,7.33
2022-10-17T22:03:44.090Z,7.42
2022-10-17T22:09:21.244Z,7.37
2022-10-17T22:11:50.639Z,7.39
2022-10-17T22:14:19.724Z,7.13
2022-10-17T22:16:47.803Z,7.35
2022-10-17T22:19:17.487Z,7.32
2022-10-17T22:21:44.636Z,7.15
2022-10-17T22:24:13.670Z,7.09
2022-10-17T22:26:42.306Z,6.96
2022-10-17T22:29:09.699Z,6.92
2022-10-17T22:31:37.412Z,7.01
2022-10-17T22:34:05.712Z,6.97
2022-10-17T22:36:33.403Z,6.86
2022-10-17T22:38:59.992Z,6.81
2022-10-17T22:41:29.628Z,6.71
2022-10-17T22:43:56.369Z,6.71
2022-10-17T22:46:23.132Z,6.65
2022-10-17T22:48:49.832Z,6.49
2022-10-17T22:51:16.502Z,6.58
2022-10-17T22:53:43.198Z,6.54
2022-10-17T22:56:13.673Z,6.54
2022-10-17T22:58:40.403Z,6.64
2022-10-17T23:01:08.595Z,6.67
2022-10-17T23:03:39.076Z,6.73
2022-10-17T23:06:05.811Z,6.72
2022-10-17T23:08:32.563Z,6.78
2022-10-17T23:11:00.621Z,6.93
2022-10-17T23:13:27.253Z,7.02
2022-10-17T23:15:55.612Z,7.04
2022-10-17T23:18:23.849Z,6.93
2022-10-17T23:20:50.808Z,6.97
2022-10-17T23:23:18.747Z,6.82
2022-10-17T23:25:45.660Z,6.78
2022-10-17T23:28:13.035Z,6.77
2022-10-17T23:30:40.302Z,6.80
2022-10-17T23:33:08.656Z,6.80
2022-10-17T23:35:35.595Z,6.89
2022-10-17T23:38:02.540Z,6.90
2022-10-17T23:40:29.704Z,6.95
2022-10-17T23:42:56.351Z,6.98
2022-10-17T23:45:22.971Z,7.07
2022-10-17T23:47:49.695Z,7.09
2022-10-17T23:50:16.561Z,7.20
2022-10-17T23:52:43.284Z,7.16
2022-10-17T23:58:57.033Z,7.36
